aviador You're here:

KCUB Decoded Metar

COLUMBIA-OWENS in SC, USA
Report Time2018-01-19 10:53:00
UTC Time2018-01-19 11:25:44
Flight Rules vfr VFR
WindCalm
Visibility9999 m
Phenomena:N/A
Clouds:N/A
Expected CloudBase > 800 ft AGL from Temp-Dew spread
CeilingNone
Temp-4°C (ISA -19)
Dew Point-6°C (86% RH)
AAT-6.7°C
QNH1025 hPa
Density Alt-2,470 ft
Elevation184 ft
Report Wrong Elevation
Raw Report
KCUB 191053Z AUTO 00000KT 9SM CLR M04/M06 A3026 RMK AO2 SLP247
T10391056=

Extra information for KCUB:More info

Metar Taf Metar & Taf Last 4 Metars F.Rules Stats Wind Profile Meteogram Temp Stats Airport Information Weather charts Add Link Nearby VenuesMetar ALERT Operation Metar Decoded Social comments

AIRNAV info for KCUB